Time;durP1;ratioP1;P1;durP2;ratioP2;P2;SDS_P1;SDS_P2;PMS_P1;PMS_P2;Temp;Humidity;BMP_temperature;BMP_pressure;BME280_temperature;BME280_humidity;BME280_pressure;Samples;Min_cycle;Max_cycle;Signal;HPM_P1;HPM_P2
2023/06/10 00:00:43;;;;;;;65.28;59.30;;;17.20;46.70;;;;;;5002947;28;20120;-60
2023/06/10 00:03:10;;;;;;;63.78;58.08;;;17.20;27.00;;;;;;5003088;28;20038;-60
2023/06/10 00:05:38;;;;;;;60.42;55.13;;;17.10;10.20;;;;;;5003238;28;20042;-60
2023/06/10 00:08:06;;;;;;;66.18;60.47;;;17.20;1.00;;;;;;5000613;28;20125;-60
2023/06/10 00:10:35;;;;;;;65.95;60.15;;;17.10;1.00;;;;;;5001572;28;20049;-60
2023/06/10 00:13:07;;;;;;;64.88;58.95;;;17.20;1.00;;;;;;5003116;28;20507;-60
2023/06/10 00:15:33;;;;;;;64.28;58.50;;;17.10;1.00;;;;;;5003626;28;20045;-59
2023/06/10 00:17:58;;;;;;;61.17;55.95;;;17.20;1.00;;;;;;5001215;28;20064;-60
2023/06/10 00:20:24;;;;;;;64.20;58.80;;;17.20;1.00;;;;;;5002878;28;20046;-60
2023/06/10 00:22:50;;;;;;;65.15;59.22;;;17.20;1.00;;;;;;5003046;28;20487;-60
2023/06/10 00:25:16;;;;;;;66.35;60.45;;;17.20;1.00;;;;;;5003441;28;20048;-60
2023/06/10 00:27:42;;;;;;;65.63;59.80;;;17.20;1.00;;;;;;5003297;28;20042;-60
2023/06/10 00:30:08;;;;;;;62.42;57.25;;;17.20;1.00;;;;;;5002475;28;20085;-60
2023/06/10 00:32:35;;;;;;;66.68;60.95;;;17.10;1.00;;;;;;5003382;28;20527;-60
2023/06/10 00:35:01;;;;;;;62.75;57.45;;;17.20;1.00;;;;;;5002580;28;20049;-60
2023/06/10 00:37:27;;;;;;;61.90;56.65;;;17.10;99.90;;;;;;5002900;28;20034;-60
2023/06/10 00:39:53;;;;;;;66.28;60.67;;;17.20;99.90;;;;;;5002699;28;20056;-60
2023/06/10 00:42:19;;;;;;;63.38;58.03;;;17.20;99.90;;;;;;5003215;28;20065;-60
2023/06/10 00:44:44;;;;;;;61.72;56.28;;;17.20;99.90;;;;;;5002701;28;20056;-60
2023/06/10 00:47:10;;;;;;;62.17;56.83;;;17.30;99.90;;;;;;5003195;28;20050;-60
2023/06/10 00:49:36;;;;;;;61.97;56.78;;;17.20;99.90;;;;;;5000535;28;20132;-59
2023/06/10 00:52:04;;;;;;;62.80;57.30;;;17.20;99.90;;;;;;5002554;28;20129;-60
2023/06/10 00:54:30;;;;;;;61.25;56.20;;;17.20;99.90;;;;;;5002230;28;20046;-61
2023/06/10 00:56:57;;;;;;;62.63;57.63;;;17.20;99.90;;;;;;5002861;28;20044;-60
2023/06/10 00:59:25;;;;;;;63.50;58.40;;;17.20;99.90;;;;;;5001064;28;20045;-60
2023/06/10 01:01:51;;;;;;;61.55;56.55;;;17.20;99.90;;;;;;5006292;28;20049;-60
2023/06/10 01:04:19;;;;;;;63.22;57.78;;;17.30;99.90;;;;;;5009801;28;20574;-60
2023/06/10 01:06:47;;;;;;;63.45;58.15;;;17.20;99.90;;;;;;4999881;28;20077;-60
2023/06/10 01:09:31;;;;;;;60.45;55.53;;;17.20;99.90;;;;;;5007751;28;20053;-61
2023/06/10 01:12:03;;;;;;;57.40;52.70;;;17.20;99.90;;;;;;5009568;28;20046;-60
2023/06/10 01:14:31;;;;;;;60.47;55.55;;;17.40;99.90;;;;;;5009776;28;20124;-60
2023/06/10 01:16:57;;;;;;;61.15;55.92;;;17.40;99.90;;;;;;5009479;28;20050;-60
2023/06/10 01:19:24;;;;;;;62.33;57.13;;;17.40;99.90;;;;;;5009862;28;20046;-60
2023/06/10 01:21:51;;;;;;;66.20;60.55;;;17.40;99.90;;;;;;5008607;28;20053;-60
2023/06/10 01:24:18;;;;;;;67.35;61.72;;;17.30;99.90;;;;;;5008572;28;20511;-60
2023/06/10 01:26:45;;;;;;;70.13;64.32;;;17.20;99.90;;;;;;5009624;28;20042;-60
2023/06/10 01:29:18;;;;;;;71.63;65.20;;;17.10;99.90;;;;;;5009515;28;20084;-60
2023/06/10 01:31:55;;;;;;;74.50;67.72;;;17.10;99.90;;;;;;5007159;28;20084;-60
2023/06/10 01:34:23;;;;;;;72.53;66.40;;;17.10;99.90;;;;;;5009775;28;20030;-60
2023/06/10 01:36:50;;;;;;;72.82;66.72;;;16.90;99.90;;;;;;5009411;28;20492;-60
2023/06/10 01:39:18;;;;;;;71.50;65.28;;;16.90;99.90;;;;;;5009417;28;20597;-60
2023/06/10 01:41:44;;;;;;;66.88;61.13;;;16.90;99.90;;;;;;5010811;28;20050;-60
2023/06/10 01:44:10;;;;;;;69.47;63.50;;;16.80;99.90;;;;;;5012880;28;20132;-60
2023/06/10 01:46:36;;;;;;;69.10;63.10;;;16.80;99.90;;;;;;5011845;28;20053;-60
2023/06/10 01:49:01;;;;;;;71.65;65.30;;;16.80;99.90;;;;;;5013254;28;20169;-60
2023/06/10 01:51:27;;;;;;;72.88;66.65;;;16.80;99.90;;;;;;5012445;28;20179;-60
2023/06/10 01:53:53;;;;;;;72.88;66.55;;;16.70;99.90;;;;;;5013146;28;20117;-60
2023/06/10 01:56:19;;;;;;;75.47;68.88;;;16.60;99.90;;;;;;5011791;28;20042;-60
2023/06/10 01:58:48;;;;;;;71.13;65.22;;;16.60;99.90;;;;;;5013384;28;20042;-61
2023/06/10 02:01:14;;;;;;;68.30;61.95;;;16.60;99.90;;;;;;5013170;28;20042;-60
2023/06/10 02:03:40;;;;;;;71.97;65.82;;;16.50;99.90;;;;;;5012665;28;20478;-61
2023/06/10 02:06:05;;;;;;;70.15;64.15;;;16.50;99.90;;;;;;5003968;28;20046;-60
2023/06/10 02:08:31;;;;;;;70.75;64.65;;;16.50;99.90;;;;;;5009997;28;20066;-60
2023/06/10 02:10:57;;;;;;;68.35;62.72;;;16.40;99.90;;;;;;5012919;28;20046;-60
2023/06/10 02:13:22;;;;;;;67.68;61.78;;;16.50;99.90;;;;;;5012718;28;20399;-60
2023/06/10 02:15:48;;;;;;;70.35;64.40;;;16.40;99.90;;;;;;5012650;28;20403;-60
2023/06/10 02:18:13;;;;;;;70.60;64.38;;;16.40;99.90;;;;;;5013300;28;20484;-60
2023/06/10 02:20:39;;;;;;;70.32;64.30;;;16.40;99.90;;;;;;5011854;28;20038;-60
2023/06/10 02:23:05;;;;;;;69.18;62.97;;;16.30;99.90;;;;;;5012867;28;20265;-60
2023/06/10 02:25:30;;;;;;;73.45;67.18;;;16.30;99.90;;;;;;5012541;28;20077;-60
2023/06/10 02:27:56;;;;;;;72.88;66.47;;;16.30;99.90;;;;;;5012648;28;20103;-60
2023/06/10 02:30:22;;;;;;;73.95;67.63;;;16.30;99.90;;;;;;5012053;28;20513;-60
2023/06/10 02:32:48;;;;;;;73.28;66.97;;;16.20;99.90;;;;;;5012787;28;20089;-61
2023/06/10 02:35:17;;;;;;;73.82;67.32;;;16.10;99.90;;;;;;5012469;28;20041;-61
2023/06/10 02:37:43;;;;;;;73.82;67.13;;;16.00;1.00;;;;;;5012581;28;20048;-61
2023/06/10 02:40:10;;;;;;;75.78;69.07;;;15.90;1.00;;;;;;5011945;28;20049;-61
2023/06/10 02:42:36;;;;;;;72.97;66.25;;;15.80;1.00;;;;;;5012227;28;20057;-60
2023/06/10 02:45:02;;;;;;;75.03;68.10;;;15.80;1.00;;;;;;5012239;28;20081;-60
2023/06/10 02:47:27;;;;;;;74.43;67.97;;;15.60;1.00;;;;;;5012170;28;20416;-60
2023/06/10 02:49:53;;;;;;;76.72;69.93;;;15.70;1.00;;;;;;5011372;28;20034;-61
2023/06/10 02:52:18;;;;;;;73.35;66.55;;;15.60;1.00;;;;;;5002298;28;20046;-60
2023/06/10 02:54:45;;;;;;;73.72;67.18;;;15.50;1.00;;;;;;5002958;28;20044;-60
2023/06/10 02:57:11;;;;;;;75.63;69.07;;;15.50;1.00;;;;;;5002411;28;20124;-60
2023/06/10 02:59:36;;;;;;;72.85;66.22;;;15.40;1.00;;;;;;5003275;28;20133;-60
2023/06/10 03:02:02;;;;;;;73.35;66.82;;;15.50;1.00;;;;;;5003394;28;20053;-60
2023/06/10 03:04:28;;;;;;;74.75;68.30;;;15.40;1.00;;;;;;5002558;28;20538;-60
2023/06/10 03:06:54;;;;;;;74.22;67.60;;;15.50;1.00;;;;;;5007034;28;20463;-60
2023/06/10 03:09:20;;;;;;;71.95;65.45;;;15.40;1.00;;;;;;5006718;28;20042;-61
2023/06/10 03:11:45;;;;;;;72.30;65.45;;;15.40;1.00;;;;;;5005612;28;20416;-61
2023/06/10 03:14:11;;;;;;;72.88;66.25;;;15.40;1.00;;;;;;5006854;28;20069;-60
2023/06/10 03:16:40;;;;;;;70.55;64.30;;;15.80;1.90;;;;;;5008840;28;20034;-61
2023/06/10 03:19:07;;;;;;;68.10;62.00;;;15.20;12.00;;;;;;5008087;28;20045;-60
2023/06/10 03:21:33;;;;;;;68.18;61.60;;;15.30;19.40;;;;;;5007379;28;20705;-60
2023/06/10 03:23:59;;;;;;;67.00;60.47;;;15.30;34.90;;;;;;5007891;28;20057;-60
2023/06/10 03:26:27;;;;;;;68.45;61.97;;;15.60;62.60;;;;;;5008385;28;20038;-60
2023/06/10 03:28:53;;;;;;;68.88;62.03;;;15.70;86.90;;;;;;5007886;28;20404;-60
2023/06/10 03:31:18;;;;;;;68.63;61.97;;;15.30;92.10;;;;;;5008283;28;20046;-61
2023/06/10 03:33:44;;;;;;;67.25;60.90;;;15.30;98.00;;;;;;5007848;28;20713;-60
2023/06/10 03:36:10;;;;;;;66.75;59.95;;;15.40;99.90;;;;;;5008592;28;20463;-60
2023/06/10 03:38:36;;;;;;;65.32;58.92;;;15.30;99.90;;;;;;5007813;28;20660;-61
2023/06/10 03:41:02;;;;;;;62.97;56.95;;;15.30;99.90;;;;;;5007681;28;20516;-60
2023/06/10 03:43:27;;;;;;;63.55;57.55;;;15.30;99.90;;;;;;5007291;28;20058;-61
2023/06/10 03:45:53;;;;;;;63.88;57.85;;;15.40;99.90;;;;;;5006142;28;20048;-61
2023/06/10 03:48:19;;;;;;;63.80;57.60;;;15.40;99.90;;;;;;5007893;28;20095;-60
2023/06/10 03:50:44;;;;;;;61.75;55.72;;;15.60;99.90;;;;;;5007588;28;20592;-60
2023/06/10 03:53:10;;;;;;;62.20;56.30;;;15.50;99.90;;;;;;5007043;28;20038;-60
2023/06/10 03:55:36;;;;;;;61.85;56.10;;;15.40;99.90;;;;;;5006111;28;20500;-61
2023/06/10 03:58:01;;;;;;;61.15;55.22;;;15.50;99.90;;;;;;5007683;28;20087;-60
2023/06/10 04:00:28;;;;;;;60.70;54.83;;;15.50;99.90;;;;;;5007889;28;20196;-60
2023/06/10 04:02:57;;;;;;;59.65;54.08;;;15.50;99.90;;;;;;5005812;28;20068;-60
2023/06/10 04:05:23;;;;;;;57.10;51.42;;;15.50;99.90;;;;;;5003142;28;20497;-60
2023/06/10 04:07:49;;;;;;;60.05;54.28;;;15.60;99.90;;;;;;5007784;28;20183;-61
2023/06/10 04:10:15;;;;;;;59.15;53.25;;;15.60;99.90;;;;;;5007680;28;20117;-60
2023/06/10 04:12:41;;;;;;;58.65;53.00;;;15.60;99.90;;;;;;5007368;28;20042;-60
2023/06/10 04:15:07;;;;;;;59.60;54.15;;;15.60;99.90;;;;;;5007166;28;20068;-61
2023/06/10 04:17:33;;;;;;;59.75;54.25;;;15.60;99.90;;;;;;5005987;28;20050;-60
2023/06/10 04:19:59;;;;;;;60.30;54.72;;;15.70;99.90;;;;;;5006840;28;20064;-60
2023/06/10 04:22:25;;;;;;;59.40;53.58;;;15.70;99.90;;;;;;5007180;28;20073;-60
2023/06/10 04:24:51;;;;;;;58.80;53.15;;;15.70;99.90;;;;;;5006327;28;20054;-60
2023/06/10 04:27:17;;;;;;;58.38;52.70;;;15.70;99.90;;;;;;5007174;28;20045;-60
2023/06/10 04:29:42;;;;;;;57.17;51.60;;;15.70;99.90;;;;;;5007151;28;20515;-60
2023/06/10 04:32:08;;;;;;;57.78;51.95;;;15.70;99.90;;;;;;5007228;28;20419;-61
2023/06/10 04:34:34;;;;;;;58.60;52.30;;;15.60;99.90;;;;;;5006915;28;20521;-60
2023/06/10 04:37:00;;;;;;;56.95;51.55;;;15.60;99.90;;;;;;5006958;28;20053;-60
2023/06/10 04:39:25;;;;;;;55.83;50.60;;;15.70;99.90;;;;;;5006668;28;20041;-60
2023/06/10 04:41:51;;;;;;;57.15;51.58;;;15.70;99.90;;;;;;5007175;28;20056;-60
2023/06/10 04:44:17;;;;;;;56.15;50.85;;;15.60;99.90;;;;;;5006581;28;20049;-60
2023/06/10 04:46:42;;;;;;;56.47;51.13;;;15.60;99.90;;;;;;5006685;28;20099;-60
2023/06/10 04:49:08;;;;;;;54.95;49.75;;;15.60;99.90;;;;;;5006561;28;20038;-60
2023/06/10 04:51:34;;;;;;;54.53;49.63;;;15.70;99.90;;;;;;5006828;28;20107;-60
2023/06/10 04:54:03;;;;;;;55.90;50.67;;;15.70;99.90;;;;;;5006680;28;20044;-60
2023/06/10 04:56:30;;;;;;;54.88;49.88;;;15.70;99.90;;;;;;5006372;28;20038;-60
2023/06/10 04:58:56;;;;;;;53.45;48.35;;;15.70;99.90;;;;;;5006337;28;20046;-59
2023/06/10 05:01:22;;;;;;;54.33;49.38;;;15.80;99.90;;;;;;5005900;28;20033;-60
2023/06/10 05:03:47;;;;;;;55.08;49.95;;;15.90;99.90;;;;;;5002888;28;20045;-60
2023/06/10 05:06:13;;;;;;;54.53;49.22;;;15.90;99.90;;;;;;5006373;28;20128;-60
2023/06/10 05:08:38;;;;;;;53.88;48.65;;;15.90;99.90;;;;;;5006153;28;20045;-60
2023/06/10 05:11:04;;;;;;;52.58;47.58;;;16.00;99.90;;;;;;5006680;28;20093;-60
2023/06/10 05:13:29;;;;;;;51.55;46.47;;;16.00;99.90;;;;;;5006289;28;20404;-60
2023/06/10 05:15:55;;;;;;;51.53;46.60;;;16.20;99.90;;;;;;5005728;28;20072;-60
2023/06/10 05:18:21;;;;;;;50.40;45.55;;;16.20;99.90;;;;;;5006577;28;20040;-60
2023/06/10 05:20:46;;;;;;;51.15;46.15;;;16.30;99.90;;;;;;5005925;28;20454;-60
2023/06/10 05:23:12;;;;;;;51.15;46.30;;;16.70;99.90;;;;;;5006456;28;20480;-60
2023/06/10 05:25:37;;;;;;;50.05;45.28;;;16.40;99.90;;;;;;5004779;28;20099;-60
2023/06/10 05:28:03;;;;;;;50.08;45.38;;;16.40;99.90;;;;;;5006471;28;20072;-60
2023/06/10 05:30:29;;;;;;;51.17;46.20;;;16.50;99.90;;;;;;5005742;28;20045;-60
2023/06/10 05:32:56;;;;;;;49.90;45.08;;;16.50;99.90;;;;;;5006626;28;20488;-60
2023/06/10 05:35:21;;;;;;;49.97;45.20;;;16.50;99.90;;;;;;5005911;28;20041;-60
2023/06/10 05:37:47;;;;;;;50.50;45.78;;;16.60;99.90;;;;;;5006239;28;20550;-60
2023/06/10 05:40:13;;;;;;;50.10;45.55;;;16.60;99.90;;;;;;5005438;28;20042;-61
2023/06/10 05:42:38;;;;;;;49.42;44.63;;;16.70;99.90;;;;;;5005559;28;20050;-61
2023/06/10 05:45:06;;;;;;;49.28;44.42;;;16.70;99.90;;;;;;5005643;28;20045;-59
2023/06/10 05:47:32;;;;;;;48.35;43.75;;;16.80;99.90;;;;;;5004943;28;20060;-59
2023/06/10 05:49:57;;;;;;;50.00;44.78;;;16.80;99.90;;;;;;5005327;28;20484;-59
2023/06/10 05:52:23;;;;;;;50.25;45.55;;;17.00;99.90;;;;;;5004572;28;20595;-59
2023/06/10 05:54:50;;;;;;;49.75;45.00;;;17.00;99.90;;;;;;5004235;28;20403;-59
2023/06/10 05:57:15;;;;;;;47.67;43.28;;;17.00;99.90;;;;;;5002340;28;20053;-59
2023/06/10 05:59:41;;;;;;;49.38;44.60;;;17.10;99.90;;;;;;5004027;28;20041;-59
2023/06/10 06:02:06;;;;;;;49.53;44.95;;;17.20;99.90;;;;;;5004369;28;20084;-59
2023/06/10 06:04:33;;;;;;;48.83;44.38;;;17.30;99.90;;;;;;5006110;28;20503;-59
2023/06/10 06:06:59;;;;;;;49.33;44.45;;;17.50;99.90;;;;;;5003815;28;20092;-59
2023/06/10 06:09:24;;;;;;;50.88;45.85;;;17.50;99.90;;;;;;5005954;28;21016;-59
2023/06/10 06:11:50;;;;;;;49.75;44.40;;;17.60;99.90;;;;;;5005085;28;20077;-59
2023/06/10 06:14:15;;;;;;;51.20;46.25;;;17.60;99.90;;;;;;5005970;28;20038;-59
2023/06/10 06:16:41;;;;;;;49.85;45.08;;;17.80;99.90;;;;;;5004824;28;20392;-59
2023/06/10 06:19:07;;;;;;;48.90;44.47;;;18.10;99.90;;;;;;5004045;28;20053;-59
2023/06/10 06:21:32;;;;;;;50.95;45.42;;;18.00;99.90;;;;;;5004370;28;20045;-59
2023/06/10 06:23:59;;;;;;;52.03;47.42;;;18.10;1.00;;;;;;5004386;28;20099;-59
2023/06/10 06:26:25;;;;;;;50.45;45.95;;;18.20;1.00;;;;;;5005743;28;20459;-59
2023/06/10 06:28:50;;;;;;;52.75;47.97;;;18.70;1.00;;;;;;5009418;28;20044;-59
2023/06/10 06:31:16;;;;;;;54.95;49.38;;;18.50;1.00;;;;;;5006941;28;20128;-59
2023/06/10 06:33:42;;;;;;;53.60;48.60;;;18.70;99.90;;;;;;5023627;28;20034;-59
2023/06/10 06:36:07;;;;;;;47.92;43.83;;;18.80;99.90;;;;;;5005612;28;20531;-60
2023/06/10 06:38:33;;;;;;;46.67;42.78;;;18.90;99.90;;;;;;5005268;28;20499;-59
2023/06/10 06:41:02;;;;;;;49.65;45.40;;;19.10;99.90;;;;;;5005030;28;20046;-59
2023/06/10 06:43:29;;;;;;;45.55;41.85;;;19.30;99.90;;;;;;5003835;28;20478;-59
2023/06/10 06:45:55;;;;;;;40.30;36.65;;;19.60;99.90;;;;;;5004635;28;20103;-59
2023/06/10 06:48:21;;;;;;;37.05;34.08;;;19.70;99.90;;;;;;5003804;28;20092;-60
2023/06/10 06:50:47;;;;;;;38.20;35.00;;;19.70;99.90;;;;;;5004247;28;20042;-60
2023/06/10 06:53:12;;;;;;;35.85;32.75;;;19.90;99.90;;;;;;5001950;28;20087;-60
2023/06/10 06:55:38;;;;;;;25.65;23.35;;;20.40;99.90;;;;;;5006187;28;20057;-59
2023/06/10 06:58:03;;;;;;;28.52;26.13;;;20.40;99.90;;;;;;5007734;28;20041;-59
2023/06/10 07:00:30;;;;;;;32.72;30.02;;;20.60;99.90;;;;;;5006747;28;20124;-61
2023/06/10 07:02:56;;;;;;;17.15;15.43;;;20.90;99.90;;;;;;5007828;28;20038;-60
2023/06/10 07:05:22;;;;;;;20.33;18.45;;;20.90;99.90;;;;;;5008157;28;20123;-59
2023/06/10 07:07:54;;;;;;;35.15;32.08;;;21.00;99.90;;;;;;5008631;28;20042;-60
2023/06/10 07:10:22;;;;;;;29.90;27.00;;;21.00;99.90;;;;;;5008385;28;20443;-60
2023/06/10 07:12:48;;;;;;;17.42;15.73;;;21.10;99.90;;;;;;5008067;28;20129;-60
2023/06/10 07:15:14;;;;;;;23.20;20.80;;;21.40;99.90;;;;;;5006500;28;20128;-59
2023/06/10 07:17:40;;;;;;;19.20;17.05;;;21.60;99.90;;;;;;5006964;28;20049;-60
2023/06/10 07:20:06;;;;;;;16.38;14.88;;;21.70;97.50;;;;;;5008081;28;20042;-60
2023/06/10 07:22:31;;;;;;;16.50;14.80;;;21.80;91.30;;;;;;5006364;28;20080;-60
2023/06/10 07:24:57;;;;;;;15.60;13.23;;;22.00;82.00;;;;;;5007826;28;20563;-60
2023/06/10 07:27:23;;;;;;;13.73;12.32;;;21.90;67.80;;;;;;5008140;28;20042;-60
2023/06/10 07:29:50;;;;;;;11.88;9.82;;;21.90;52.30;;;;;;5003932;28;20545;-59
2023/06/10 07:32:15;;;;;;;9.65;6.82;;;22.10;57.40;;;;;;5005952;28;20042;-60
2023/06/10 07:34:41;;;;;;;9.38;5.28;;;22.20;31.00;;;;;;4988188;28;20059;-60
2023/06/10 07:37:07;;;;;;;9.50;5.50;;;22.20;14.60;;;;;;5004202;28;20041;-60
2023/06/10 07:39:32;;;;;;;10.73;4.95;;;22.30;7.90;;;;;;5002969;28;20042;-60
2023/06/10 07:41:58;;;;;;;9.68;4.97;;;22.40;9.60;;;;;;5004043;28;20410;-60
2023/06/10 07:44:23;;;;;;;7.72;4.85;;;22.60;1.00;;;;;;5003153;28;20053;-60
2023/06/10 07:46:49;;;;;;;14.55;5.72;;;22.90;1.00;;;;;;5004288;28;20470;-60
2023/06/10 07:49:15;;;;;;;7.15;4.70;;;22.90;1.00;;;;;;5003894;28;20052;-60
2023/06/10 07:51:40;;;;;;;8.23;4.97;;;23.00;1.00;;;;;;5004092;28;20046;-60
2023/06/10 07:54:06;;;;;;;9.70;5.30;;;23.10;1.00;;;;;;5002190;28;20060;-59
2023/06/10 07:56:32;;;;;;;9.25;4.70;;;23.20;1.00;;;;;;5004224;28;20220;-60
2023/06/10 07:58:58;;;;;;;6.97;5.03;;;23.30;1.00;;;;;;5001606;28;20050;-60
2023/06/10 08:01:24;;;;;;;12.40;4.45;;;23.40;1.00;;;;;;5003893;28;20058;-59
2023/06/10 08:03:50;;;;;;;7.00;4.35;;;23.40;1.00;;;;;;5005845;28;20053;-60
2023/06/10 08:06:17;;;;;;;11.82;5.15;;;23.60;1.00;;;;;;5007115;28;20046;-61
2023/06/10 08:08:43;;;;;;;10.45;4.88;;;23.80;1.00;;;;;;5005589;28;20050;-60
2023/06/10 08:11:12;;;;;;;9.35;4.97;;;23.90;1.00;;;;;;5007098;28;20364;-60
2023/06/10 08:13:38;;;;;;;8.52;4.88;;;24.00;1.00;;;;;;5001973;28;20041;-60
2023/06/10 08:16:04;;;;;;;8.23;4.78;;;24.20;1.00;;;;;;5004745;28;20484;-60
2023/06/10 08:18:29;;;;;;;14.30;5.10;;;24.40;1.00;;;;;;5006592;28;20045;-60
2023/06/10 08:20:55;;;;;;;9.73;4.68;;;24.60;1.00;;;;;;5006255;28;20042;-60
2023/06/10 08:23:21;;;;;;;9.68;5.25;;;24.80;1.00;;;;;;5008894;28;20038;-60
2023/06/10 08:25:46;;;;;;;10.18;4.75;;;24.90;1.00;;;;;;5008994;28;20041;-61
2023/06/10 08:28:12;;;;;;;8.80;5.00;;;24.70;1.00;;;;;;5010502;28;20436;-60
2023/06/10 08:30:37;;;;;;;10.90;5.15;;;24.70;1.00;;;;;;5010166;28;20088;-60
2023/06/10 08:33:03;;;;;;;9.60;4.88;;;24.10;1.00;;;;;;5010419;28;20038;-60
2023/06/10 08:35:29;;;;;;;9.63;5.15;;;24.70;1.00;;;;;;5005874;28;20038;-60
2023/06/10 08:37:54;;;;;;;10.75;5.50;;;24.80;1.00;;;;;;5006251;28;20038;-60
2023/06/10 08:40:20;;;;;;;12.63;5.60;;;25.00;1.00;;;;;;5004926;28;20514;-60
2023/06/10 08:42:58;;;;;;;7.95;5.28;;;25.10;1.00;;;;;;5008725;28;20526;-61
2023/06/10 08:45:26;;;;;;;12.90;5.20;;;25.30;1.00;;;;;;5009663;28;20049;-60
2023/06/10 08:47:53;;;;;;;10.90;4.93;;;25.70;1.00;;;;;;5009998;28;20045;-60
2023/06/10 08:50:19;;;;;;;8.35;5.18;;;25.70;1.00;;;;;;5008804;28;20042;-60
2023/06/10 08:52:50;;;;;;;12.00;5.30;;;25.70;1.00;;;;;;5009933;28;21671;-60
2023/06/10 08:55:22;;;;;;;10.10;4.85;;;25.50;1.00;;;;;;5010164;28;20534;-60
2023/06/10 08:57:48;;;;;;;9.77;5.68;;;25.50;1.00;;;;;;5009880;28;20038;-60
2023/06/10 09:00:16;;;;;;;8.65;4.70;;;25.50;1.00;;;;;;5009696;28;20029;-60
2023/06/10 09:02:43;;;;;;;9.63;4.72;;;25.80;1.00;;;;;;5009598;28;20050;-61
2023/06/10 09:05:09;;;;;;;7.68;4.70;;;26.10;1.00;;;;;;5009673;28;20092;-60
2023/06/10 09:07:36;;;;;;;8.45;4.68;;;26.40;1.00;;;;;;5009920;28;20553;-60
2023/06/10 09:10:03;;;;;;;9.68;4.65;;;26.40;1.00;;;;;;5010133;28;20512;-60
2023/06/10 09:12:29;;;;;;;11.02;4.40;;;26.30;1.00;;;;;;5009272;28;20037;-62
2023/06/10 09:14:55;;;;;;;9.13;4.30;;;26.10;1.00;;;;;;5010110;28;20038;-60
2023/06/10 09:17:22;;;;;;;6.95;4.15;;;25.90;1.00;;;;;;5009871;28;20137;-61
2023/06/10 09:19:48;;;;;;;10.80;4.15;;;25.90;99.90;;;;;;5009683;28;20116;-61
2023/06/10 09:22:14;;;;;;;6.22;4.00;;;25.70;99.90;;;;;;5009729;28;20045;-61
2023/06/10 09:24:41;;;;;;;7.47;4.30;;;25.70;99.90;;;;;;5009498;28;20536;-61
2023/06/10 09:27:08;;;;;;;9.48;3.95;;;25.90;99.90;;;;;;5009275;28;20050;-61
2023/06/10 09:29:48;;;;;;;8.13;4.68;;;25.90;99.90;;;;;;5009101;28;20064;-62
2023/06/10 09:32:14;;;;;;;8.10;4.57;;;25.90;99.90;;;;;;5008084;28;20096;-61
2023/06/10 09:34:40;;;;;;;7.40;3.95;;;26.00;99.90;;;;;;5008446;28;20078;-61
2023/06/10 09:37:06;;;;;;;5.80;3.97;;;26.00;99.90;;;;;;5003357;28;20434;-61
2023/06/10 09:39:32;;;;;;;6.90;3.97;;;26.30;99.90;;;;;;5015090;28;20404;-62
2023/06/10 09:41:57;;;;;;;10.15;4.38;;;26.50;99.90;;;;;;5009155;28;20050;-62
2023/06/10 09:44:25;;;;;;;6.10;3.90;;;26.70;99.90;;;;;;5009070;28;20053;-60
2023/06/10 09:46:50;;;;;;;6.72;4.05;;;26.70;99.90;;;;;;5007845;28;20048;-61
2023/06/10 09:49:17;;;;;;;8.48;3.85;;;26.50;99.90;;;;;;5009280;28;20480;-62
2023/06/10 09:51:53;;;;;;;6.57;3.67;;;26.30;99.90;;;;;;5009433;28;20082;-61
2023/06/10 09:54:22;;;;;;;7.93;4.10;;;26.50;99.90;;;;;;5009430;28;20034;-61
2023/06/10 09:56:49;;;;;;;7.82;3.85;;;26.50;99.90;;;;;;5008610;28;20037;-62
2023/06/10 09:59:15;;;;;;;6.93;4.07;;;26.50;99.90;;;;;;5008902;28;20040;-61
2023/06/10 10:01:41;;;;;;;11.07;4.00;;;26.60;99.90;;;;;;5009495;28;20045;-61
2023/06/10 10:04:07;;;;;;;5.88;3.90;;;26.60;99.90;;;;;;5013174;28;20049;-61
2023/06/10 10:06:35;;;;;;;9.90;4.30;;;26.70;99.90;;;;;;5013107;28;20037;-61
2023/06/10 10:09:00;;;;;;;6.30;4.10;;;26.70;99.90;;;;;;5012775;28;20504;-61
2023/06/10 10:11:27;;;;;;;8.60;4.28;;;26.70;99.90;;;;;;5013117;28;20037;-61
2023/06/10 10:13:53;;;;;;;5.63;4.10;;;26.80;99.90;;;;;;5012596;28;20045;-62
2023/06/10 10:16:33;;;;;;;7.93;4.30;;;26.90;99.90;;;;;;5011204;28;20100;-62
2023/06/10 10:19:11;;;;;;;8.05;4.38;;;26.80;99.90;;;;;;5012852;28;20061;-65
2023/06/10 10:21:44;;;;;;;8.30;3.95;;;26.90;99.90;;;;;;5004311;28;20412;-62
2023/06/10 10:24:17;;;;;;;7.53;4.25;;;27.00;99.90;;;;;;5012992;28;20052;-61
2023/06/10 10:26:45;;;;;;;9.02;4.32;;;27.10;99.90;;;;;;5012481;28;20042;-62
2023/06/10 10:29:26;;;;;;;9.52;4.43;;;27.00;99.90;;;;;;5012680;28;20113;-61
2023/06/10 10:31:54;;;;;;;6.35;4.07;;;26.90;99.90;;;;;;5012552;28;20538;-61
2023/06/10 10:34:27;;;;;;;7.13;4.22;;;27.00;99.90;;;;;;5003928;28;20041;-62
2023/06/10 10:36:54;;;;;;;6.53;4.20;;;27.00;99.90;;;;;;5006830;28;20080;-61
2023/06/10 10:39:20;;;;;;;10.93;4.18;;;26.60;99.90;;;;;;5008271;28;20026;-62
2023/06/10 10:41:48;;;;;;;9.07;4.20;;;26.70;99.90;;;;;;5012463;28;20160;-61
2023/06/10 10:44:14;;;;;;;10.45;4.47;;;26.60;99.90;;;;;;5012051;28;20046;-61
2023/06/10 10:46:53;;;;;;;11.80;4.47;;;26.50;99.90;;;;;;5011004;28;20512;-61
2023/06/10 10:49:22;;;;;;;6.93;3.88;;;26.50;99.90;;;;;;5012003;28;20100;-61
2023/06/10 10:51:55;;;;;;;12.52;4.38;;;26.50;99.90;;;;;;5011854;28;20045;-61
2023/06/10 10:54:32;;;;;;;7.63;3.95;;;26.40;99.90;;;;;;5012191;28;20395;-59
2023/06/10 10:57:13;;;;;;;7.20;4.20;;;26.30;99.90;;;;;;5011707;28;20095;-59
2023/06/10 10:59:46;;;;;;;8.85;4.22;;;26.50;99.90;;;;;;5011736;28;20033;-59
2023/06/10 11:02:38;;;;;;;10.95;4.53;;;26.30;99.90;;;;;;5011906;28;20046;-60
2023/06/10 11:05:05;;;;;;;9.20;4.72;;;26.40;99.90;;;;;;5001360;28;20085;-59
2023/06/10 11:07:32;;;;;;;11.68;4.53;;;26.30;99.90;;;;;;5011853;28;20538;-60
2023/06/10 11:10:12;;;;;;;6.20;3.80;;;26.30;99.90;;;;;;5012315;28;20046;-60
2023/06/10 11:12:44;;;;;;;7.25;3.90;;;26.30;99.90;;;;;;5011212;28;20043;-61
2023/06/10 11:15:10;;;;;;;5.45;3.47;;;26.30;99.90;;;;;;5010045;28;20496;-60
2023/06/10 11:17:35;;;;;;;5.82;4.03;;;26.30;99.90;;;;;;5011779;28;20076;-60
2023/06/10 11:20:01;;;;;;;9.57;4.03;;;26.20;99.90;;;;;;5011710;28;20480;-60
2023/06/10 11:22:26;;;;;;;5.93;3.83;;;26.20;99.90;;;;;;5011477;28;20038;-60
2023/06/10 11:24:52;;;;;;;10.57;3.92;;;26.20;99.90;;;;;;5004573;28;20049;-60
2023/06/10 11:27:24;;;;;;;10.68;3.88;;;26.30;99.90;;;;;;5010985;28;20064;-60
2023/06/10 11:30:20;;;;;;;6.25;3.65;;;26.30;99.90;;;;;;5011121;28;20201;-60
2023/06/10 11:32:51;;;;;;;8.50;3.40;;;26.30;99.90;;;;;;5005022;28;20048;-59
2023/06/10 11:35:19;;;;;;;8.43;3.33;;;26.20;99.90;;;;;;5006447;28;20076;-60
2023/06/10 11:37:45;;;;;;;6.78;3.85;;;26.20;99.90;;;;;;5011317;28;20038;-60
2023/06/10 11:40:11;;;;;;;7.28;3.50;;;26.20;99.90;;;;;;5007568;28;20034;-59
2023/06/10 11:42:44;;;;;;;8.85;3.70;;;26.10;99.90;;;;;;5010677;28;20085;-60
2023/06/10 11:45:15;;;;;;;8.40;3.65;;;26.10;99.90;;;;;;5009829;28;20037;-59
2023/06/10 11:47:55;;;;;;;5.90;3.33;;;26.00;99.90;;;;;;5011234;28;20562;-60
2023/06/10 11:50:32;;;;;;;5.80;3.25;;;26.00;99.90;;;;;;5010106;28;20467;-60
2023/06/10 11:52:58;;;;;;;7.47;3.67;;;26.00;99.90;;;;;;5011426;28;20045;-60
2023/06/10 11:55:26;;;;;;;7.50;3.60;;;26.10;99.90;;;;;;5011046;28;20053;-59
2023/06/10 11:57:57;;;;;;;4.65;2.90;;;26.20;99.90;;;;;;5010826;28;20140;-62
2023/06/10 12:00:24;;;;;;;5.05;2.85;;;26.30;99.90;;;;;;5010682;28;20077;-60
2023/06/10 12:02:58;;;;;;;6.50;3.45;;;26.30;99.90;;;;;;5010511;28;20038;-60
2023/06/10 12:05:24;;;;;;;6.43;3.65;;;26.30;99.90;;;;;;5009496;28;20038;-61
2023/06/10 12:08:05;;;;;;;6.07;3.08;;;26.30;99.90;;;;;;5010664;28;20392;-59
2023/06/10 12:10:31;;;;;;;7.82;3.88;;;26.40;99.90;;;;;;5007260;28;20042;-61
2023/06/10 12:12:56;;;;;;;7.47;4.38;;;26.50;99.90;;;;;;5010160;28;20041;-59
2023/06/10 12:15:25;;;;;;;7.65;3.90;;;26.60;99.90;;;;;;5009491;28;20040;-60
2023/06/10 12:17:51;;;;;;;10.05;3.85;;;26.50;99.90;;;;;;5009801;28;20037;-58
2023/06/10 12:20:28;;;;;;;7.75;4.25;;;26.50;99.90;;;;;;5010393;28;20400;-58
2023/06/10 12:22:54;;;;;;;22.55;5.45;;;26.40;99.90;;;;;;5010422;28;20041;-59
2023/06/10 12:25:26;;;;;;;17.52;4.90;;;26.30;99.90;;;;;;5008694;28;20053;-58
2023/06/10 12:27:53;;;;;;;7.63;4.05;;;26.30;99.90;;;;;;5010222;28;20040;-59
2023/06/10 12:30:26;;;;;;;9.13;4.03;;;26.20;99.90;;;;;;5007203;28;20094;-60
2023/06/10 12:32:52;;;;;;;13.57;5.15;;;26.00;99.90;;;;;;5004866;28;20141;-59
2023/06/10 12:35:26;;;;;;;12.60;5.18;;;25.90;99.90;;;;;;5024089;28;20120;-59